sensor_id;sensor_type;location;lat;lon;timestamp;temperature;humidity
14995;DHT22;7593;49.006;8.372;2023-12-29T00:00:05;9.70;99.90
14995;DHT22;7593;49.006;8.372;2023-12-29T00:02:33;9.70;99.90
14995;DHT22;7593;49.006;8.372;2023-12-29T00:05:00;9.60;99.90
14995;DHT22;7593;49.006;8.372;2023-12-29T00:07:27;9.60;99.90
14995;DHT22;7593;49.006;8.372;2023-12-29T00:09:54;9.60;99.90
14995;DHT22;7593;49.006;8.372;2023-12-29T00:12:20;9.60;99.90
14995;DHT22;7593;49.006;8.372;2023-12-29T00:14:47;9.50;99.90
14995;DHT22;7593;49.006;8.372;2023-12-29T00:17:14;9.40;99.90
14995;DHT22;7593;49.006;8.372;2023-12-29T00:19:42;9.30;99.90
14995;DHT22;7593;49.006;8.372;2023-12-29T00:22:09;9.30;99.90
14995;DHT22;7593;49.006;8.372;2023-12-29T00:24:36;9.20;99.90
14995;DHT22;7593;49.006;8.372;2023-12-29T00:27:04;9.10;99.90
14995;DHT22;7593;49.006;8.372;2023-12-29T00:29:31;9.00;99.90
14995;DHT22;7593;49.006;8.372;2023-12-29T00:31:58;9.00;99.90
14995;DHT22;7593;49.006;8.372;2023-12-29T00:34:25;8.90;99.90
14995;DHT22;7593;49.006;8.372;2023-12-29T00:36:54;8.90;99.90
14995;DHT22;7593;49.006;8.372;2023-12-29T00:39:20;8.80;99.90
14995;DHT22;7593;49.006;8.372;2023-12-29T00:41:54;8.80;99.90
14995;DHT22;7593;49.006;8.372;2023-12-29T00:44:21;8.70;99.90
14995;DHT22;7593;49.006;8.372;2023-12-29T00:46:48;8.70;99.90
14995;DHT22;7593;49.006;8.372;2023-12-29T00:49:15;8.80;99.90
14995;DHT22;7593;49.006;8.372;2023-12-29T00:51:41;8.80;99.90
14995;DHT22;7593;49.006;8.372;2023-12-29T00:54:09;8.90;99.90
14995;DHT22;7593;49.006;8.372;2023-12-29T00:56:36;8.90;99.90
14995;DHT22;7593;49.006;8.372;2023-12-29T00:59:03;9.00;99.90
14995;DHT22;7593;49.006;8.372;2023-12-29T01:01:33;9.00;99.90
14995;DHT22;7593;49.006;8.372;2023-12-29T01:04:00;9.00;99.90
14995;DHT22;7593;49.006;8.372;2023-12-29T01:06:26;9.10;99.90
14995;DHT22;7593;49.006;8.372;2023-12-29T01:08:53;9.10;99.90
14995;DHT22;7593;49.006;8.372;2023-12-29T01:11:22;9.10;99.90
14995;DHT22;7593;49.006;8.372;2023-12-29T01:13:48;9.00;99.90
14995;DHT22;7593;49.006;8.372;2023-12-29T01:16:15;9.10;99.90
14995;DHT22;7593;49.006;8.372;2023-12-29T01:18:42;9.10;99.90
14995;DHT22;7593;49.006;8.372;2023-12-29T01:21:09;9.10;99.90
14995;DHT22;7593;49.006;8.372;2023-12-29T01:23:35;9.10;99.90
14995;DHT22;7593;49.006;8.372;2023-12-29T01:26:02;9.10;99.90
14995;DHT22;7593;49.006;8.372;2023-12-29T01:28:31;9.10;99.90
14995;DHT22;7593;49.006;8.372;2023-12-29T01:30:57;9.10;99.90
14995;DHT22;7593;49.006;8.372;2023-12-29T01:33:24;9.10;99.90
14995;DHT22;7593;49.006;8.372;2023-12-29T01:35:51;9.10;99.90
14995;DHT22;7593;49.006;8.372;2023-12-29T01:38:17;9.10;99.90
14995;DHT22;7593;49.006;8.372;2023-12-29T01:40:44;9.10;99.90
14995;DHT22;7593;49.006;8.372;2023-12-29T01:43:11;9.10;99.90
14995;DHT22;7593;49.006;8.372;2023-12-29T01:45:39;9.20;99.90
14995;DHT22;7593;49.006;8.372;2023-12-29T01:48:08;9.20;99.90
14995;DHT22;7593;49.006;8.372;2023-12-29T01:50:35;9.20;99.90
14995;DHT22;7593;49.006;8.372;2023-12-29T01:53:03;9.20;99.90
14995;DHT22;7593;49.006;8.372;2023-12-29T01:55:31;9.20;99.90
14995;DHT22;7593;49.006;8.372;2023-12-29T01:57:59;9.30;99.90
14995;DHT22;7593;49.006;8.372;2023-12-29T02:00:26;9.30;99.90
14995;DHT22;7593;49.006;8.372;2023-12-29T02:02:54;9.30;99.90
14995;DHT22;7593;49.006;8.372;2023-12-29T02:05:21;9.30;99.90
14995;DHT22;7593;49.006;8.372;2023-12-29T02:07:51;9.30;99.90
14995;DHT22;7593;49.006;8.372;2023-12-29T02:10:19;9.30;99.90
14995;DHT22;7593;49.006;8.372;2023-12-29T02:12:47;9.30;99.90
14995;DHT22;7593;49.006;8.372;2023-12-29T02:15:14;9.30;99.90
14995;DHT22;7593;49.006;8.372;2023-12-29T02:17:47;9.30;99.90
14995;DHT22;7593;49.006;8.372;2023-12-29T02:20:16;9.30;99.90
14995;DHT22;7593;49.006;8.372;2023-12-29T02:22:51;9.30;99.90
14995;DHT22;7593;49.006;8.372;2023-12-29T02:25:19;9.30;99.90
14995;DHT22;7593;49.006;8.372;2023-12-29T02:27:57;9.40;99.90
14995;DHT22;7593;49.006;8.372;2023-12-29T02:30:27;9.40;99.90
14995;DHT22;7593;49.006;8.372;2023-12-29T02:33:00;9.40;99.90
14995;DHT22;7593;49.006;8.372;2023-12-29T02:35:28;9.50;99.90
14995;DHT22;7593;49.006;8.372;2023-12-29T02:37:59;9.40;99.90
14995;DHT22;7593;49.006;8.372;2023-12-29T02:40:28;9.50;99.90
14995;DHT22;7593;49.006;8.372;2023-12-29T02:42:55;9.40;99.90
14995;DHT22;7593;49.006;8.372;2023-12-29T02:45:22;9.40;99.90
14995;DHT22;7593;49.006;8.372;2023-12-29T02:47:49;9.40;99.90
14995;DHT22;7593;49.006;8.372;2023-12-29T02:50:16;9.40;99.90
14995;DHT22;7593;49.006;8.372;2023-12-29T02:52:43;9.40;99.90
14995;DHT22;7593;49.006;8.372;2023-12-29T02:55:10;9.40;99.90
14995;DHT22;7593;49.006;8.372;2023-12-29T02:57:38;9.40;99.90
14995;DHT22;7593;49.006;8.372;2023-12-29T03:00:06;9.40;99.90
14995;DHT22;7593;49.006;8.372;2023-12-29T03:02:34;9.40;99.90
14995;DHT22;7593;49.006;8.372;2023-12-29T03:05:00;9.30;99.90
14995;DHT22;7593;49.006;8.372;2023-12-29T03:07:27;9.30;99.90
14995;DHT22;7593;49.006;8.372;2023-12-29T03:09:54;9.30;99.90
14995;DHT22;7593;49.006;8.372;2023-12-29T03:12:21;9.30;99.90
14995;DHT22;7593;49.006;8.372;2023-12-29T03:14:49;9.30;99.90
14995;DHT22;7593;49.006;8.372;2023-12-29T03:17:16;9.20;99.90
14995;DHT22;7593;49.006;8.372;2023-12-29T03:19:43;9.30;99.90
14995;DHT22;7593;49.006;8.372;2023-12-29T03:22:09;9.30;99.90
14995;DHT22;7593;49.006;8.372;2023-12-29T03:24:37;9.30;99.90
14995;DHT22;7593;49.006;8.372;2023-12-29T03:27:04;9.30;99.90
14995;DHT22;7593;49.006;8.372;2023-12-29T03:29:30;9.30;99.90
14995;DHT22;7593;49.006;8.372;2023-12-29T03:31:59;9.30;99.90
14995;DHT22;7593;49.006;8.372;2023-12-29T03:34:25;9.30;99.90
14995;DHT22;7593;49.006;8.372;2023-12-29T03:36:52;9.20;99.90
14995;DHT22;7593;49.006;8.372;2023-12-29T03:39:19;9.10;99.90
14995;DHT22;7593;49.006;8.372;2023-12-29T03:41:46;9.10;99.90
14995;DHT22;7593;49.006;8.372;2023-12-29T03:44:13;9.00;99.90
14995;DHT22;7593;49.006;8.372;2023-12-29T03:46:41;9.00;99.90
14995;DHT22;7593;49.006;8.372;2023-12-29T03:49:11;8.90;99.90
14995;DHT22;7593;49.006;8.372;2023-12-29T03:51:38;8.90;99.90
14995;DHT22;7593;49.006;8.372;2023-12-29T03:54:05;8.90;99.90
14995;DHT22;7593;49.006;8.372;2023-12-29T03:56:32;8.90;99.90
14995;DHT22;7593;49.006;8.372;2023-12-29T03:58:58;8.90;99.90
14995;DHT22;7593;49.006;8.372;2023-12-29T04:01:25;8.90;99.90
14995;DHT22;7593;49.006;8.372;2023-12-29T04:03:53;8.90;99.90
14995;DHT22;7593;49.006;8.372;2023-12-29T04:06:21;9.00;99.90
14995;DHT22;7593;49.006;8.372;2023-12-29T04:08:48;8.90;99.90
14995;DHT22;7593;49.006;8.372;2023-12-29T04:11:14;9.00;99.90
14995;DHT22;7593;49.006;8.372;2023-12-29T04:13:41;9.00;99.90
14995;DHT22;7593;49.006;8.372;2023-12-29T04:16:08;9.00;99.90
14995;DHT22;7593;49.006;8.372;2023-12-29T04:18:34;9.00;99.90
14995;DHT22;7593;49.006;8.372;2023-12-29T04:21:01;9.00;99.90
14995;DHT22;7593;49.006;8.372;2023-12-29T04:23:29;9.00;99.90
14995;DHT22;7593;49.006;8.372;2023-12-29T04:25:56;9.10;99.90
14995;DHT22;7593;49.006;8.372;2023-12-29T04:28:23;9.10;99.90
14995;DHT22;7593;49.006;8.372;2023-12-29T04:30:49;9.10;99.90
14995;DHT22;7593;49.006;8.372;2023-12-29T04:33:16;9.10;99.90
14995;DHT22;7593;49.006;8.372;2023-12-29T04:35:43;9.10;99.90
14995;DHT22;7593;49.006;8.372;2023-12-29T04:38:09;9.20;99.90
14995;DHT22;7593;49.006;8.372;2023-12-29T04:40:37;9.20;99.90
14995;DHT22;7593;49.006;8.372;2023-12-29T04:43:04;9.10;99.90
14995;DHT22;7593;49.006;8.372;2023-12-29T04:45:31;9.20;99.90
14995;DHT22;7593;49.006;8.372;2023-12-29T04:47:58;9.20;99.90
14995;DHT22;7593;49.006;8.372;2023-12-29T04:50:24;9.20;99.90
14995;DHT22;7593;49.006;8.372;2023-12-29T04:52:51;9.20;99.90
14995;DHT22;7593;49.006;8.372;2023-12-29T04:55:18;9.20;99.90
14995;DHT22;7593;49.006;8.372;2023-12-29T04:57:46;9.20;99.90
14995;DHT22;7593;49.006;8.372;2023-12-29T05:00:13;9.20;99.90
14995;DHT22;7593;49.006;8.372;2023-12-29T05:02:40;9.20;99.90
14995;DHT22;7593;49.006;8.372;2023-12-29T05:05:07;9.10;99.90
14995;DHT22;7593;49.006;8.372;2023-12-29T05:07:34;9.00;99.90
14995;DHT22;7593;49.006;8.372;2023-12-29T05:10:01;8.90;99.90
14995;DHT22;7593;49.006;8.372;2023-12-29T05:12:28;8.90;99.90
14995;DHT22;7593;49.006;8.372;2023-12-29T05:14:56;8.80;99.90
14995;DHT22;7593;49.006;8.372;2023-12-29T05:17:23;8.70;99.90
14995;DHT22;7593;49.006;8.372;2023-12-29T05:19:50;8.70;99.90
14995;DHT22;7593;49.006;8.372;2023-12-29T05:22:18;8.70;99.90
14995;DHT22;7593;49.006;8.372;2023-12-29T05:24:44;8.70;99.90
14995;DHT22;7593;49.006;8.372;2023-12-29T05:27:11;8.70;99.90
14995;DHT22;7593;49.006;8.372;2023-12-29T05:29:38;8.70;99.90
14995;DHT22;7593;49.006;8.372;2023-12-29T05:32:07;8.60;99.90
14995;DHT22;7593;49.006;8.372;2023-12-29T05:34:34;8.70;99.90
14995;DHT22;7593;49.006;8.372;2023-12-29T05:37:00;8.70;99.90
14995;DHT22;7593;49.006;8.372;2023-12-29T05:39:27;8.70;99.90
14995;DHT22;7593;49.006;8.372;2023-12-29T05:41:55;8.70;99.90
14995;DHT22;7593;49.006;8.372;2023-12-29T05:44:21;8.70;99.90
14995;DHT22;7593;49.006;8.372;2023-12-29T05:46:49;8.70;99.90
14995;DHT22;7593;49.006;8.372;2023-12-29T05:49:18;8.70;99.90
14995;DHT22;7593;49.006;8.372;2023-12-29T05:51:45;8.70;99.90
14995;DHT22;7593;49.006;8.372;2023-12-29T05:54:12;8.60;99.90
14995;DHT22;7593;49.006;8.372;2023-12-29T05:56:38;8.70;99.90
14995;DHT22;7593;49.006;8.372;2023-12-29T05:59:05;8.70;99.90
14995;DHT22;7593;49.006;8.372;2023-12-29T06:01:32;8.70;99.90
14995;DHT22;7593;49.006;8.372;2023-12-29T06:03:59;8.60;99.90
14995;DHT22;7593;49.006;8.372;2023-12-29T06:06:27;8.60;99.90
14995;DHT22;7593;49.006;8.372;2023-12-29T06:08:54;8.60;99.90
14995;DHT22;7593;49.006;8.372;2023-12-29T06:11:21;8.60;99.90
14995;DHT22;7593;49.006;8.372;2023-12-29T06:13:47;8.60;99.90
14995;DHT22;7593;49.006;8.372;2023-12-29T06:16:18;8.60;99.90
14995;DHT22;7593;49.006;8.372;2023-12-29T06:18:45;8.60;99.90
14995;DHT22;7593;49.006;8.372;2023-12-29T06:21:12;8.60;99.90
14995;DHT22;7593;49.006;8.372;2023-12-29T06:23:40;8.60;99.90
14995;DHT22;7593;49.006;8.372;2023-12-29T06:26:14;8.60;99.90
14995;DHT22;7593;49.006;8.372;2023-12-29T06:28:41;8.60;99.90
14995;DHT22;7593;49.006;8.372;2023-12-29T06:31:07;8.60;99.90
14995;DHT22;7593;49.006;8.372;2023-12-29T06:33:34;8.60;99.90
14995;DHT22;7593;49.006;8.372;2023-12-29T06:36:01;8.60;99.90
14995;DHT22;7593;49.006;8.372;2023-12-29T06:38:28;8.60;99.90
14995;DHT22;7593;49.006;8.372;2023-12-29T06:40:56;8.60;99.90
14995;DHT22;7593;49.006;8.372;2023-12-29T06:43:23;8.70;99.90
14995;DHT22;7593;49.006;8.372;2023-12-29T06:45:50;8.60;99.90
14995;DHT22;7593;49.006;8.372;2023-12-29T06:48:17;8.70;99.90
14995;DHT22;7593;49.006;8.372;2023-12-29T06:50:44;8.60;99.90
14995;DHT22;7593;49.006;8.372;2023-12-29T06:53:11;8.60;99.90
14995;DHT22;7593;49.006;8.372;2023-12-29T06:55:38;8.70;99.90
14995;DHT22;7593;49.006;8.372;2023-12-29T06:58:06;8.70;99.90
14995;DHT22;7593;49.006;8.372;2023-12-29T07:00:33;8.70;99.90
14995;DHT22;7593;49.006;8.372;2023-12-29T07:03:00;8.70;99.90
14995;DHT22;7593;49.006;8.372;2023-12-29T07:05:27;8.60;99.90
14995;DHT22;7593;49.006;8.372;2023-12-29T07:07:54;8.60;99.90
14995;DHT22;7593;49.006;8.372;2023-12-29T07:10:21;8.60;99.90
14995;DHT22;7593;49.006;8.372;2023-12-29T07:12:48;8.70;99.90
14995;DHT22;7593;49.006;8.372;2023-12-29T07:15:16;8.70;99.90
14995;DHT22;7593;49.006;8.372;2023-12-29T07:17:43;8.70;99.90
14995;DHT22;7593;49.006;8.372;2023-12-29T07:20:10;8.70;99.90
14995;DHT22;7593;49.006;8.372;2023-12-29T07:22:37;8.70;99.90
14995;DHT22;7593;49.006;8.372;2023-12-29T07:25:04;8.80;99.90
14995;DHT22;7593;49.006;8.372;2023-12-29T07:27:31;8.80;99.90
14995;DHT22;7593;49.006;8.372;2023-12-29T07:29:58;8.80;99.90
14995;DHT22;7593;49.006;8.372;2023-12-29T07:32:26;8.90;99.90
14995;DHT22;7593;49.006;8.372;2023-12-29T07:34:53;9.00;99.90
14995;DHT22;7593;49.006;8.372;2023-12-29T07:37:19;8.90;99.90
14995;DHT22;7593;49.006;8.372;2023-12-29T07:39:46;9.00;99.90
14995;DHT22;7593;49.006;8.372;2023-12-29T07:42:13;9.00;99.90
14995;DHT22;7593;49.006;8.372;2023-12-29T07:44:42;9.00;99.90
14995;DHT22;7593;49.006;8.372;2023-12-29T07:47:09;9.00;99.90
14995;DHT22;7593;49.006;8.372;2023-12-29T07:49:38;9.00;99.90
14995;DHT22;7593;49.006;8.372;2023-12-29T07:52:07;9.00;99.90
14995;DHT22;7593;49.006;8.372;2023-12-29T07:54:34;9.00;99.90
14995;DHT22;7593;49.006;8.372;2023-12-29T07:57:01;9.00;99.90
14995;DHT22;7593;49.006;8.372;2023-12-29T07:59:28;9.00;99.90
14995;DHT22;7593;49.006;8.372;2023-12-29T08:01:55;9.10;99.90
14995;DHT22;7593;49.006;8.372;2023-12-29T08:04:23;9.10;99.90
14995;DHT22;7593;49.006;8.372;2023-12-29T08:06:51;9.20;99.90
14995;DHT22;7593;49.006;8.372;2023-12-29T08:09:18;9.20;99.90
14995;DHT22;7593;49.006;8.372;2023-12-29T08:11:45;9.30;99.90
14995;DHT22;7593;49.006;8.372;2023-12-29T08:14:12;9.30;99.90
14995;DHT22;7593;49.006;8.372;2023-12-29T08:16:38;9.30;99.90
14995;DHT22;7593;49.006;8.372;2023-12-29T08:19:06;9.40;99.90
14995;DHT22;7593;49.006;8.372;2023-12-29T08:21:33;9.40;99.90
14995;DHT22;7593;49.006;8.372;2023-12-29T08:24:01;9.40;99.90
14995;DHT22;7593;49.006;8.372;2023-12-29T08:26:28;9.40;99.90
14995;DHT22;7593;49.006;8.372;2023-12-29T08:28:55;9.40;99.90
14995;DHT22;7593;49.006;8.372;2023-12-29T08:31:22;9.50;99.90
14995;DHT22;7593;49.006;8.372;2023-12-29T08:33:48;9.50;99.90
14995;DHT22;7593;49.006;8.372;2023-12-29T08:36:18;9.50;99.90
14995;DHT22;7593;49.006;8.372;2023-12-29T08:38:45;9.50;99.90
14995;DHT22;7593;49.006;8.372;2023-12-29T08:41:15;9.60;99.90
14995;DHT22;7593;49.006;8.372;2023-12-29T08:43:41;9.60;99.90
14995;DHT22;7593;49.006;8.372;2023-12-29T08:46:08;9.60;99.90
14995;DHT22;7593;49.006;8.372;2023-12-29T08:48:35;9.60;99.90
14995;DHT22;7593;49.006;8.372;2023-12-29T08:51:02;9.60;99.90
14995;DHT22;7593;49.006;8.372;2023-12-29T08:53:29;9.60;99.90
14995;DHT22;7593;49.006;8.372;2023-12-29T08:55:59;9.70;99.90
14995;DHT22;7593;49.006;8.372;2023-12-29T08:58:27;9.70;99.90
14995;DHT22;7593;49.006;8.372;2023-12-29T09:00:54;9.80;99.90
14995;DHT22;7593;49.006;8.372;2023-12-29T09:03:21;9.80;99.90
14995;DHT22;7593;49.006;8.372;2023-12-29T09:05:51;9.80;99.90
14995;DHT22;7593;49.006;8.372;2023-12-29T09:08:17;9.80;99.90
14995;DHT22;7593;49.006;8.372;2023-12-29T09:10:44;9.90;99.90
14995;DHT22;7593;49.006;8.372;2023-12-29T09:13:11;9.90;99.90
14995;DHT22;7593;49.006;8.372;2023-12-29T09:15:39;10.00;99.90
14995;DHT22;7593;49.006;8.372;2023-12-29T09:18:06;10.00;99.90
14995;DHT22;7593;49.006;8.372;2023-12-29T09:20:33;10.10;99.90
14995;DHT22;7593;49.006;8.372;2023-12-29T09:22:59;10.20;99.90
14995;DHT22;7593;49.006;8.372;2023-12-29T09:25:28;10.30;99.90
14995;DHT22;7593;49.006;8.372;2023-12-29T09:27:55;10.40;99.90
14995;DHT22;7593;49.006;8.372;2023-12-29T09:30:22;10.50;99.90
14995;DHT22;7593;49.006;8.372;2023-12-29T09:32:50;10.60;99.90
14995;DHT22;7593;49.006;8.372;2023-12-29T09:35:17;10.60;99.90
14995;DHT22;7593;49.006;8.372;2023-12-29T09:37:47;10.70;99.90
14995;DHT22;7593;49.006;8.372;2023-12-29T09:40:14;10.70;99.90
14995;DHT22;7593;49.006;8.372;2023-12-29T09:42:43;10.70;99.90
14995;DHT22;7593;49.006;8.372;2023-12-29T09:45:12;10.70;99.90
14995;DHT22;7593;49.006;8.372;2023-12-29T09:47:40;10.80;99.90
14995;DHT22;7593;49.006;8.372;2023-12-29T09:50:11;10.80;99.90
14995;DHT22;7593;49.006;8.372;2023-12-29T09:52:38;10.90;99.90
14995;DHT22;7593;49.006;8.372;2023-12-29T09:55:08;11.00;99.90
14995;DHT22;7593;49.006;8.372;2023-12-29T09:57:36;11.10;99.90
14995;DHT22;7593;49.006;8.372;2023-12-29T10:00:13;11.00;99.90
14995;DHT22;7593;49.006;8.372;2023-12-29T10:02:42;11.00;99.90
14995;DHT22;7593;49.006;8.372;2023-12-29T10:05:17;11.10;99.90
14995;DHT22;7593;49.006;8.372;2023-12-29T10:07:48;11.00;99.90
14995;DHT22;7593;49.006;8.372;2023-12-29T10:10:20;11.10;99.90
14995;DHT22;7593;49.006;8.372;2023-12-29T10:12:48;11.10;99.90
14995;DHT22;7593;49.006;8.372;2023-12-29T10:15:21;11.10;99.90
14995;DHT22;7593;49.006;8.372;2023-12-29T10:17:52;11.10;99.90
14995;DHT22;7593;49.006;8.372;2023-12-29T10:20:36;11.20;99.90
14995;DHT22;7593;49.006;8.372;2023-12-29T10:23:08;11.30;99.90
14995;DHT22;7593;49.006;8.372;2023-12-29T10:25:35;11.40;99.90
14995;DHT22;7593;49.006;8.372;2023-12-29T10:28:02;11.50;99.90
14995;DHT22;7593;49.006;8.372;2023-12-29T10:30:30;11.60;99.90
14995;DHT22;7593;49.006;8.372;2023-12-29T10:32:57;11.70;99.90
14995;DHT22;7593;49.006;8.372;2023-12-29T10:35:26;11.80;99.90
14995;DHT22;7593;49.006;8.372;2023-12-29T10:37:54;11.90;99.90
14995;DHT22;7593;49.006;8.372;2023-12-29T10:40:21;11.90;99.90
14995;DHT22;7593;49.006;8.372;2023-12-29T10:42:52;12.00;99.90
14995;DHT22;7593;49.006;8.372;2023-12-29T10:45:19;12.00;99.90
14995;DHT22;7593;49.006;8.372;2023-12-29T10:47:46;12.00;99.90
14995;DHT22;7593;49.006;8.372;2023-12-29T10:50:14;12.20;99.90
14995;DHT22;7593;49.006;8.372;2023-12-29T10:52:40;12.30;99.90
14995;DHT22;7593;49.006;8.372;2023-12-29T10:55:10;12.30;99.90
14995;DHT22;7593;49.006;8.372;2023-12-29T10:57:38;12.30;99.90
14995;DHT22;7593;49.006;8.372;2023-12-29T11:00:06;12.30;99.90
14995;DHT22;7593;49.006;8.372;2023-12-29T11:02:33;12.50;99.90
14995;DHT22;7593;49.006;8.372;2023-12-29T11:05:05;12.40;99.90
14995;DHT22;7593;49.006;8.372;2023-12-29T11:07:36;12.40;99.90
14995;DHT22;7593;49.006;8.372;2023-12-29T11:10:04;12.40;99.90
14995;DHT22;7593;49.006;8.372;2023-12-29T11:12:34;12.40;99.90
14995;DHT22;7593;49.006;8.372;2023-12-29T11:15:02;12.40;99.90
14995;DHT22;7593;49.006;8.372;2023-12-29T11:17:30;12.50;99.90
14995;DHT22;7593;49.006;8.372;2023-12-29T11:19:59;12.60;99.90
14995;DHT22;7593;49.006;8.372;2023-12-29T11:22:28;12.60;99.90
14995;DHT22;7593;49.006;8.372;2023-12-29T11:24:55;12.70;99.90
14995;DHT22;7593;49.006;8.372;2023-12-29T11:27:27;12.80;99.90
14995;DHT22;7593;49.006;8.372;2023-12-29T11:29:57;12.90;99.90
14995;DHT22;7593;49.006;8.372;2023-12-29T11:32:30;12.90;99.90
14995;DHT22;7593;49.006;8.372;2023-12-29T11:35:06;12.90;99.90
14995;DHT22;7593;49.006;8.372;2023-12-29T11:37:47;13.00;99.90
14995;DHT22;7593;49.006;8.372;2023-12-29T11:40:20;13.00;99.90
14995;DHT22;7593;49.006;8.372;2023-12-29T11:42:49;13.00;99.90
14995;DHT22;7593;49.006;8.372;2023-12-29T11:45:28;13.10;99.90
14995;DHT22;7593;49.006;8.372;2023-12-29T11:47:55;13.10;99.90
14995;DHT22;7593;49.006;8.372;2023-12-29T11:50:31;13.10;99.90
14995;DHT22;7593;49.006;8.372;2023-12-29T11:52:58;13.10;99.90
14995;DHT22;7593;49.006;8.372;2023-12-29T11:55:29;13.00;99.90
14995;DHT22;7593;49.006;8.372;2023-12-29T11:57:57;12.80;99.90
14995;DHT22;7593;49.006;8.372;2023-12-29T12:00:44;12.70;99.90
14995;DHT22;7593;49.006;8.372;2023-12-29T12:03:19;12.60;99.90
14995;DHT22;7593;49.006;8.372;2023-12-29T12:05:50;12.60;99.90
14995;DHT22;7593;49.006;8.372;2023-12-29T12:08:35;12.60;99.90
14995;DHT22;7593;49.006;8.372;2023-12-29T12:11:42;12.60;99.90
14995;DHT22;7593;49.006;8.372;2023-12-29T12:14:09;12.60;99.90
14995;DHT22;7593;49.006;8.372;2023-12-29T12:16:50;12.50;99.90
14995;DHT22;7593;49.006;8.372;2023-12-29T12:19:21;12.50;99.90
14995;DHT22;7593;49.006;8.372;2023-12-29T12:21:51;12.40;99.90
14995;DHT22;7593;49.006;8.372;2023-12-29T12:24:20;12.40;99.90
14995;DHT22;7593;49.006;8.372;2023-12-29T12:26:47;12.40;99.90
14995;DHT22;7593;49.006;8.372;2023-12-29T12:29:14;12.30;99.90
14995;DHT22;7593;49.006;8.372;2023-12-29T12:31:56;12.30;99.90
14995;DHT22;7593;49.006;8.372;2023-12-29T12:34:23;12.30;99.90
14995;DHT22;7593;49.006;8.372;2023-12-29T12:36:51;12.30;99.90
14995;DHT22;7593;49.006;8.372;2023-12-29T12:39:18;12.30;99.90
14995;DHT22;7593;49.006;8.372;2023-12-29T12:41:45;12.30;99.90
14995;DHT22;7593;49.006;8.372;2023-12-29T12:44:13;12.30;99.90
14995;DHT22;7593;49.006;8.372;2023-12-29T12:46:41;12.30;99.90
14995;DHT22;7593;49.006;8.372;2023-12-29T12:49:13;12.30;99.90
14995;DHT22;7593;49.006;8.372;2023-12-29T12:51:40;12.30;99.90
14995;DHT22;7593;49.006;8.372;2023-12-29T12:54:07;12.30;99.90
14995;DHT22;7593;49.006;8.372;2023-12-29T12:56:34;12.30;99.90
14995;DHT22;7593;49.006;8.372;2023-12-29T12:59:02;12.30;99.90
14995;DHT22;7593;49.006;8.372;2023-12-29T13:01:29;12.30;99.90
14995;DHT22;7593;49.006;8.372;2023-12-29T13:04:01;12.30;99.90
14995;DHT22;7593;49.006;8.372;2023-12-29T13:06:30;12.30;99.90
14995;DHT22;7593;49.006;8.372;2023-12-29T13:08:57;12.40;99.90
14995;DHT22;7593;49.006;8.372;2023-12-29T13:11:24;12.40;99.90
14995;DHT22;7593;49.006;8.372;2023-12-29T13:13:51;12.40;99.90
14995;DHT22;7593;49.006;8.372;2023-12-29T13:16:28;12.50;99.90
14995;DHT22;7593;49.006;8.372;2023-12-29T13:18:55;12.50;99.90
14995;DHT22;7593;49.006;8.372;2023-12-29T13:21:22;12.60;99.90
14995;DHT22;7593;49.006;8.372;2023-12-29T13:23:50;12.60;99.90
14995;DHT22;7593;49.006;8.372;2023-12-29T13:26:18;12.70;99.90
14995;DHT22;7593;49.006;8.372;2023-12-29T13:28:46;12.70;99.90
14995;DHT22;7593;49.006;8.372;2023-12-29T13:31:13;12.70;99.90
14995;DHT22;7593;49.006;8.372;2023-12-29T13:33:48;12.70;99.90
14995;DHT22;7593;49.006;8.372;2023-12-29T13:36:21;12.70;99.90
14995;DHT22;7593;49.006;8.372;2023-12-29T13:38:55;12.70;99.90
14995;DHT22;7593;49.006;8.372;2023-12-29T13:41:24;12.60;99.90
14995;DHT22;7593;49.006;8.372;2023-12-29T13:43:52;12.60;99.90
14995;DHT22;7593;49.006;8.372;2023-12-29T13:46:21;12.60;99.90
14995;DHT22;7593;49.006;8.372;2023-12-29T13:48:48;12.60;99.90
14995;DHT22;7593;49.006;8.372;2023-12-29T13:51:16;12.60;99.90
14995;DHT22;7593;49.006;8.372;2023-12-29T13:53:43;12.60;99.90
14995;DHT22;7593;49.006;8.372;2023-12-29T13:56:11;12.50;99.90
14995;DHT22;7593;49.006;8.372;2023-12-29T13:58:38;12.50;99.90
14995;DHT22;7593;49.006;8.372;2023-12-29T14:01:08;12.50;99.90
14995;DHT22;7593;49.006;8.372;2023-12-29T14:03:42;12.50;99.90
14995;DHT22;7593;49.006;8.372;2023-12-29T14:06:12;12.40;99.90
14995;DHT22;7593;49.006;8.372;2023-12-29T14:08:44;12.40;99.90
14995;DHT22;7593;49.006;8.372;2023-12-29T14:11:12;12.40;99.90
14995;DHT22;7593;49.006;8.372;2023-12-29T14:13:41;12.30;99.90
14995;DHT22;7593;49.006;8.372;2023-12-29T14:16:09;12.40;99.90
14995;DHT22;7593;49.006;8.372;2023-12-29T14:18:54;12.40;99.90
14995;DHT22;7593;49.006;8.372;2023-12-29T14:21:23;12.30;99.90
14995;DHT22;7593;49.006;8.372;2023-12-29T14:24:09;12.30;99.90
14995;DHT22;7593;49.006;8.372;2023-12-29T14:26:39;12.30;99.90
14995;DHT22;7593;49.006;8.372;2023-12-29T14:29:08;12.20;99.90
14995;DHT22;7593;49.006;8.372;2023-12-29T14:31:36;12.20;99.90
14995;DHT22;7593;49.006;8.372;2023-12-29T14:34:03;12.20;99.90
14995;DHT22;7593;49.006;8.372;2023-12-29T14:36:31;12.20;99.90
14995;DHT22;7593;49.006;8.372;2023-12-29T14:38:58;12.10;99.90
14995;DHT22;7593;49.006;8.372;2023-12-29T14:41:24;12.10;99.90
14995;DHT22;7593;49.006;8.372;2023-12-29T14:43:53;12.10;99.90
14995;DHT22;7593;49.006;8.372;2023-12-29T14:46:20;12.00;99.90
14995;DHT22;7593;49.006;8.372;2023-12-29T14:48:47;11.90;99.90
14995;DHT22;7593;49.006;8.372;2023-12-29T14:51:14;11.90;99.90
14995;DHT22;7593;49.006;8.372;2023-12-29T14:53:43;11.90;99.90
14995;DHT22;7593;49.006;8.372;2023-12-29T14:56:11;11.90;99.90
14995;DHT22;7593;49.006;8.372;2023-12-29T14:58:38;11.90;99.90
14995;DHT22;7593;49.006;8.372;2023-12-29T15:01:06;11.90;99.90
14995;DHT22;7593;49.006;8.372;2023-12-29T15:03:33;11.90;99.90
14995;DHT22;7593;49.006;8.372;2023-12-29T15:06:00;11.80;99.90
14995;DHT22;7593;49.006;8.372;2023-12-29T15:08:28;11.80;99.90
14995;DHT22;7593;49.006;8.372;2023-12-29T15:11:00;11.70;99.90
14995;DHT22;7593;49.006;8.372;2023-12-29T15:13:27;11.70;99.90
14995;DHT22;7593;49.006;8.372;2023-12-29T15:15:56;11.70;99.90
14995;DHT22;7593;49.006;8.372;2023-12-29T15:18:24;11.70;99.90
14995;DHT22;7593;49.006;8.372;2023-12-29T15:20:50;11.60;99.90
14995;DHT22;7593;49.006;8.372;2023-12-29T15:23:17;11.60;99.90
14995;DHT22;7593;49.006;8.372;2023-12-29T15:25:44;11.50;99.90
14995;DHT22;7593;49.006;8.372;2023-12-29T15:28:11;11.50;99.90
14995;DHT22;7593;49.006;8.372;2023-12-29T15:30:38;11.40;99.90
14995;DHT22;7593;49.006;8.372;2023-12-29T15:33:05;11.40;99.90
14995;DHT22;7593;49.006;8.372;2023-12-29T15:35:33;11.40;99.90
14995;DHT22;7593;49.006;8.372;2023-12-29T15:38:00;11.40;99.90
14995;DHT22;7593;49.006;8.372;2023-12-29T15:40:27;11.40;99.90
14995;DHT22;7593;49.006;8.372;2023-12-29T15:42:54;11.40;99.90
14995;DHT22;7593;49.006;8.372;2023-12-29T15:45:22;11.40;99.90
14995;DHT22;7593;49.006;8.372;2023-12-29T15:47:48;11.50;99.90
14995;DHT22;7593;49.006;8.372;2023-12-29T15:50:15;11.40;99.90
14995;DHT22;7593;49.006;8.372;2023-12-29T15:52:44;11.50;99.90
14995;DHT22;7593;49.006;8.372;2023-12-29T15:55:10;11.40;99.90
14995;DHT22;7593;49.006;8.372;2023-12-29T15:57:37;11.40;99.90
14995;DHT22;7593;49.006;8.372;2023-12-29T16:00:05;11.40;99.90